sensor_id;sensor_type;location;lat;lon;timestamp;P1;durP1;ratioP1;P2;durP2;ratioP2
52858;SDS011;38721;53.098;6.596;2024-03-08T00:01:12;38.85;;;23.45;;
52858;SDS011;38721;53.098;6.596;2024-03-08T00:03:37;40.10;;;23.60;;
52858;SDS011;38721;53.098;6.596;2024-03-08T00:06:05;40.78;;;24.15;;
52858;SDS011;38721;53.098;6.596;2024-03-08T00:08:31;37.40;;;23.08;;
52858;SDS011;38721;53.098;6.596;2024-03-08T00:10:57;41.40;;;23.83;;
52858;SDS011;38721;53.098;6.596;2024-03-08T00:13:22;37.60;;;22.98;;
52858;SDS011;38721;53.098;6.596;2024-03-08T00:15:50;42.63;;;23.80;;
52858;SDS011;38721;53.098;6.596;2024-03-08T00:18:16;38.92;;;23.80;;
52858;SDS011;38721;53.098;6.596;2024-03-08T00:20:42;38.30;;;23.25;;
52858;SDS011;38721;53.098;6.596;2024-03-08T00:23:09;39.80;;;23.88;;
52858;SDS011;38721;53.098;6.596;2024-03-08T00:25:37;41.90;;;24.75;;
52858;SDS011;38721;53.098;6.596;2024-03-08T00:28:04;45.47;;;26.08;;
52858;SDS011;38721;53.098;6.596;2024-03-08T00:30:31;41.03;;;25.20;;
52858;SDS011;38721;53.098;6.596;2024-03-08T00:32:56;47.50;;;24.58;;
52858;SDS011;38721;53.098;6.596;2024-03-08T00:35:22;42.40;;;25.65;;
52858;SDS011;38721;53.098;6.596;2024-03-08T00:37:48;44.58;;;24.55;;
52858;SDS011;38721;53.098;6.596;2024-03-08T00:40:14;43.47;;;25.45;;
52858;SDS011;38721;53.098;6.596;2024-03-08T00:42:40;42.55;;;26.13;;
52858;SDS011;38721;53.098;6.596;2024-03-08T00:45:06;47.97;;;26.48;;
52858;SDS011;38721;53.098;6.596;2024-03-08T00:47:33;43.03;;;26.00;;
52858;SDS011;38721;53.098;6.596;2024-03-08T00:49:58;43.60;;;25.50;;
52858;SDS011;38721;53.098;6.596;2024-03-08T00:52:24;41.47;;;25.13;;
52858;SDS011;38721;53.098;6.596;2024-03-08T00:54:50;40.05;;;25.10;;
52858;SDS011;38721;53.098;6.596;2024-03-08T00:57:16;42.92;;;25.70;;
52858;SDS011;38721;53.098;6.596;2024-03-08T00:59:42;46.67;;;26.55;;
52858;SDS011;38721;53.098;6.596;2024-03-08T01:02:07;43.17;;;26.02;;
52858;SDS011;38721;53.098;6.596;2024-03-08T01:04:34;47.55;;;26.25;;
52858;SDS011;38721;53.098;6.596;2024-03-08T01:07:00;44.03;;;26.30;;
52858;SDS011;38721;53.098;6.596;2024-03-08T01:09:26;45.25;;;26.67;;
52858;SDS011;38721;53.098;6.596;2024-03-08T01:11:53;48.70;;;26.83;;
52858;SDS011;38721;53.098;6.596;2024-03-08T01:14:20;44.25;;;26.15;;
52858;SDS011;38721;53.098;6.596;2024-03-08T01:16:50;49.92;;;29.15;;
52858;SDS011;38721;53.098;6.596;2024-03-08T01:19:16;45.90;;;26.23;;
52858;SDS011;38721;53.098;6.596;2024-03-08T01:21:42;47.28;;;26.85;;
52858;SDS011;38721;53.098;6.596;2024-03-08T01:24:08;45.40;;;26.35;;
52858;SDS011;38721;53.098;6.596;2024-03-08T01:26:34;48.22;;;27.10;;
52858;SDS011;38721;53.098;6.596;2024-03-08T01:29:00;45.00;;;27.23;;
52858;SDS011;38721;53.098;6.596;2024-03-08T01:31:28;45.03;;;26.98;;
52858;SDS011;38721;53.098;6.596;2024-03-08T01:33:56;46.88;;;27.50;;
52858;SDS011;38721;53.098;6.596;2024-03-08T01:36:25;43.22;;;26.80;;
52858;SDS011;38721;53.098;6.596;2024-03-08T01:38:51;46.63;;;26.40;;
52858;SDS011;38721;53.098;6.596;2024-03-08T01:41:17;46.33;;;26.17;;
52858;SDS011;38721;53.098;6.596;2024-03-08T01:43:44;48.67;;;26.65;;
52858;SDS011;38721;53.098;6.596;2024-03-08T01:46:10;48.33;;;27.17;;
52858;SDS011;38721;53.098;6.596;2024-03-08T01:48:40;50.03;;;28.55;;
52858;SDS011;38721;53.098;6.596;2024-03-08T01:51:06;46.65;;;26.80;;
52858;SDS011;38721;53.098;6.596;2024-03-08T01:53:33;47.60;;;27.33;;
52858;SDS011;38721;53.098;6.596;2024-03-08T01:55:59;44.60;;;27.50;;
52858;SDS011;38721;53.098;6.596;2024-03-08T01:58:27;47.25;;;26.42;;
52858;SDS011;38721;53.098;6.596;2024-03-08T02:00:54;47.45;;;26.50;;
52858;SDS011;38721;53.098;6.596;2024-03-08T02:03:22;52.10;;;27.70;;
52858;SDS011;38721;53.098;6.596;2024-03-08T02:05:47;45.15;;;26.80;;
52858;SDS011;38721;53.098;6.596;2024-03-08T02:08:15;45.20;;;26.85;;
52858;SDS011;38721;53.098;6.596;2024-03-08T02:10:41;45.17;;;26.63;;
52858;SDS011;38721;53.098;6.596;2024-03-08T02:13:08;45.40;;;27.48;;
52858;SDS011;38721;53.098;6.596;2024-03-08T02:18:20;48.28;;;27.20;;
52858;SDS011;38721;53.098;6.596;2024-03-08T02:20:47;46.92;;;27.15;;
52858;SDS011;38721;53.098;6.596;2024-03-08T02:23:14;47.00;;;26.23;;
52858;SDS011;38721;53.098;6.596;2024-03-08T02:25:40;46.70;;;27.05;;
52858;SDS011;38721;53.098;6.596;2024-03-08T02:28:10;51.60;;;27.75;;
52858;SDS011;38721;53.098;6.596;2024-03-08T02:30:37;48.05;;;27.05;;
52858;SDS011;38721;53.098;6.596;2024-03-08T02:33:03;44.38;;;27.02;;
52858;SDS011;38721;53.098;6.596;2024-03-08T02:35:30;48.50;;;28.30;;
52858;SDS011;38721;53.098;6.596;2024-03-08T02:37:55;46.67;;;27.17;;
52858;SDS011;38721;53.098;6.596;2024-03-08T02:40:21;51.42;;;27.42;;
52858;SDS011;38721;53.098;6.596;2024-03-08T02:42:47;45.83;;;26.90;;
52858;SDS011;38721;53.098;6.596;2024-03-08T02:45:13;47.80;;;27.42;;
52858;SDS011;38721;53.098;6.596;2024-03-08T02:47:39;43.28;;;25.80;;
52858;SDS011;38721;53.098;6.596;2024-03-08T02:50:05;46.35;;;27.38;;
52858;SDS011;38721;53.098;6.596;2024-03-08T02:52:33;47.53;;;26.55;;
52858;SDS011;38721;53.098;6.596;2024-03-08T02:55:00;47.85;;;27.00;;
52858;SDS011;38721;53.098;6.596;2024-03-08T02:57:26;46.08;;;26.98;;
52858;SDS011;38721;53.098;6.596;2024-03-08T02:59:53;45.17;;;25.25;;
52858;SDS011;38721;53.098;6.596;2024-03-08T03:02:19;47.28;;;26.63;;
52858;SDS011;38721;53.098;6.596;2024-03-08T03:04:45;46.65;;;26.80;;
52858;SDS011;38721;53.098;6.596;2024-03-08T03:07:10;44.80;;;25.85;;
52858;SDS011;38721;53.098;6.596;2024-03-08T03:09:36;44.08;;;26.77;;
52858;SDS011;38721;53.098;6.596;2024-03-08T03:12:02;44.97;;;26.33;;
52858;SDS011;38721;53.098;6.596;2024-03-08T03:14:28;43.42;;;25.92;;
52858;SDS011;38721;53.098;6.596;2024-03-08T03:16:54;43.60;;;25.63;;
52858;SDS011;38721;53.098;6.596;2024-03-08T03:19:20;41.53;;;25.90;;
52858;SDS011;38721;53.098;6.596;2024-03-08T03:21:46;44.88;;;26.55;;
52858;SDS011;38721;53.098;6.596;2024-03-08T03:24:12;45.85;;;26.50;;
52858;SDS011;38721;53.098;6.596;2024-03-08T03:26:41;47.40;;;26.73;;
52858;SDS011;38721;53.098;6.596;2024-03-08T03:29:08;47.35;;;27.35;;
52858;SDS011;38721;53.098;6.596;2024-03-08T03:31:36;45.10;;;26.52;;
52858;SDS011;38721;53.098;6.596;2024-03-08T03:34:01;44.95;;;27.17;;
52858;SDS011;38721;53.098;6.596;2024-03-08T03:36:31;46.63;;;26.55;;
52858;SDS011;38721;53.098;6.596;2024-03-08T03:38:58;47.22;;;25.95;;
52858;SDS011;38721;53.098;6.596;2024-03-08T03:41:38;47.58;;;25.75;;
52858;SDS011;38721;53.098;6.596;2024-03-08T03:44:07;46.08;;;26.35;;
52858;SDS011;38721;53.098;6.596;2024-03-08T03:46:33;45.22;;;27.02;;
52858;SDS011;38721;53.098;6.596;2024-03-08T03:48:59;44.90;;;25.90;;
52858;SDS011;38721;53.098;6.596;2024-03-08T03:51:25;41.75;;;25.75;;
52858;SDS011;38721;53.098;6.596;2024-03-08T03:53:51;42.65;;;25.83;;
52858;SDS011;38721;53.098;6.596;2024-03-08T03:56:18;41.97;;;26.13;;
52858;SDS011;38721;53.098;6.596;2024-03-08T03:58:44;46.22;;;25.65;;
52858;SDS011;38721;53.098;6.596;2024-03-08T04:01:12;45.38;;;25.67;;
52858;SDS011;38721;53.098;6.596;2024-03-08T04:03:37;45.00;;;25.52;;
52858;SDS011;38721;53.098;6.596;2024-03-08T04:06:08;43.40;;;25.38;;
52858;SDS011;38721;53.098;6.596;2024-03-08T04:08:33;45.63;;;26.10;;
52858;SDS011;38721;53.098;6.596;2024-03-08T04:11:00;40.22;;;24.73;;
52858;SDS011;38721;53.098;6.596;2024-03-08T04:13:26;43.13;;;25.10;;
52858;SDS011;38721;53.098;6.596;2024-03-08T04:15:52;43.10;;;25.83;;
52858;SDS011;38721;53.098;6.596;2024-03-08T04:18:18;43.33;;;26.02;;
52858;SDS011;38721;53.098;6.596;2024-03-08T04:20:44;43.70;;;25.25;;
52858;SDS011;38721;53.098;6.596;2024-03-08T04:23:10;39.83;;;24.30;;
52858;SDS011;38721;53.098;6.596;2024-03-08T04:25:36;43.28;;;26.17;;
52858;SDS011;38721;53.098;6.596;2024-03-08T04:28:02;42.42;;;25.67;;
52858;SDS011;38721;53.098;6.596;2024-03-08T04:30:28;40.85;;;25.05;;
52858;SDS011;38721;53.098;6.596;2024-03-08T04:32:55;42.72;;;25.67;;
52858;SDS011;38721;53.098;6.596;2024-03-08T04:35:21;42.78;;;25.00;;
52858;SDS011;38721;53.098;6.596;2024-03-08T04:37:46;42.30;;;25.83;;
52858;SDS011;38721;53.098;6.596;2024-03-08T04:40:12;42.75;;;24.85;;
52858;SDS011;38721;53.098;6.596;2024-03-08T04:42:38;43.28;;;24.98;;
52858;SDS011;38721;53.098;6.596;2024-03-08T04:45:05;41.92;;;24.73;;
52858;SDS011;38721;53.098;6.596;2024-03-08T04:47:33;40.00;;;23.77;;
52858;SDS011;38721;53.098;6.596;2024-03-08T04:49:59;44.53;;;25.25;;
52858;SDS011;38721;53.098;6.596;2024-03-08T04:52:24;40.47;;;25.17;;
52858;SDS011;38721;53.098;6.596;2024-03-08T04:54:51;37.58;;;24.88;;
52858;SDS011;38721;53.098;6.596;2024-03-08T04:57:16;43.80;;;26.27;;
52858;SDS011;38721;53.098;6.596;2024-03-08T04:59:45;40.17;;;23.80;;
52858;SDS011;38721;53.098;6.596;2024-03-08T05:02:10;40.70;;;24.00;;
52858;SDS011;38721;53.098;6.596;2024-03-08T05:04:36;43.25;;;23.55;;
52858;SDS011;38721;53.098;6.596;2024-03-08T05:07:02;42.45;;;24.27;;
52858;SDS011;38721;53.098;6.596;2024-03-08T05:09:29;37.90;;;23.40;;
52858;SDS011;38721;53.098;6.596;2024-03-08T05:11:56;36.75;;;23.13;;
52858;SDS011;38721;53.098;6.596;2024-03-08T05:14:24;43.85;;;24.20;;
52858;SDS011;38721;53.098;6.596;2024-03-08T05:16:50;44.03;;;24.85;;
52858;SDS011;38721;53.098;6.596;2024-03-08T05:19:16;41.28;;;23.90;;
52858;SDS011;38721;53.098;6.596;2024-03-08T05:21:43;38.75;;;24.63;;
52858;SDS011;38721;53.098;6.596;2024-03-08T05:24:09;38.67;;;25.00;;
52858;SDS011;38721;53.098;6.596;2024-03-08T05:26:35;41.13;;;24.13;;
52858;SDS011;38721;53.098;6.596;2024-03-08T05:29:02;39.50;;;23.92;;
52858;SDS011;38721;53.098;6.596;2024-03-08T05:31:28;39.30;;;24.10;;
52858;SDS011;38721;53.098;6.596;2024-03-08T05:33:56;40.08;;;23.90;;
52858;SDS011;38721;53.098;6.596;2024-03-08T05:36:21;39.03;;;23.98;;
52858;SDS011;38721;53.098;6.596;2024-03-08T05:38:47;40.05;;;24.30;;
52858;SDS011;38721;53.098;6.596;2024-03-08T05:41:16;44.28;;;24.90;;
52858;SDS011;38721;53.098;6.596;2024-03-08T05:43:43;40.13;;;24.75;;
52858;SDS011;38721;53.098;6.596;2024-03-08T05:46:09;39.42;;;23.88;;
52858;SDS011;38721;53.098;6.596;2024-03-08T05:48:36;41.17;;;24.52;;
52858;SDS011;38721;53.098;6.596;2024-03-08T05:51:03;38.55;;;23.13;;
52858;SDS011;38721;53.098;6.596;2024-03-08T05:53:29;41.63;;;24.48;;
52858;SDS011;38721;53.098;6.596;2024-03-08T05:55:58;40.83;;;23.90;;
52858;SDS011;38721;53.098;6.596;2024-03-08T05:58:24;40.58;;;24.15;;
52858;SDS011;38721;53.098;6.596;2024-03-08T06:00:50;39.92;;;23.50;;
52858;SDS011;38721;53.098;6.596;2024-03-08T06:03:18;40.20;;;23.52;;
52858;SDS011;38721;53.098;6.596;2024-03-08T06:05:46;37.17;;;23.00;;
52858;SDS011;38721;53.098;6.596;2024-03-08T06:08:13;40.15;;;24.42;;
52858;SDS011;38721;53.098;6.596;2024-03-08T06:10:40;39.70;;;23.70;;
52858;SDS011;38721;53.098;6.596;2024-03-08T06:13:05;39.15;;;23.80;;
52858;SDS011;38721;53.098;6.596;2024-03-08T06:15:31;39.47;;;23.08;;
52858;SDS011;38721;53.098;6.596;2024-03-08T06:17:57;39.05;;;24.20;;
52858;SDS011;38721;53.098;6.596;2024-03-08T06:20:23;38.63;;;23.92;;
52858;SDS011;38721;53.098;6.596;2024-03-08T06:22:51;36.63;;;23.15;;
52858;SDS011;38721;53.098;6.596;2024-03-08T06:25:17;42.92;;;23.17;;
52858;SDS011;38721;53.098;6.596;2024-03-08T06:27:43;41.40;;;24.13;;
52858;SDS011;38721;53.098;6.596;2024-03-08T06:30:11;39.45;;;24.92;;
52858;SDS011;38721;53.098;6.596;2024-03-08T06:32:37;40.33;;;24.63;;
52858;SDS011;38721;53.098;6.596;2024-03-08T06:35:06;43.78;;;24.10;;
52858;SDS011;38721;53.098;6.596;2024-03-08T06:37:32;43.05;;;23.88;;
52858;SDS011;38721;53.098;6.596;2024-03-08T06:39:58;40.20;;;23.20;;
52858;SDS011;38721;53.098;6.596;2024-03-08T06:42:26;41.75;;;23.52;;
52858;SDS011;38721;53.098;6.596;2024-03-08T06:44:53;35.85;;;23.23;;
52858;SDS011;38721;53.098;6.596;2024-03-08T06:47:21;42.80;;;24.65;;
52858;SDS011;38721;53.098;6.596;2024-03-08T06:49:47;39.22;;;23.15;;
52858;SDS011;38721;53.098;6.596;2024-03-08T06:52:14;37.88;;;24.13;;
52858;SDS011;38721;53.098;6.596;2024-03-08T06:54:41;40.58;;;24.13;;
52858;SDS011;38721;53.098;6.596;2024-03-08T06:57:07;39.70;;;24.17;;
52858;SDS011;38721;53.098;6.596;2024-03-08T06:59:35;39.88;;;23.92;;
52858;SDS011;38721;53.098;6.596;2024-03-08T07:02:01;41.70;;;23.67;;
52858;SDS011;38721;53.098;6.596;2024-03-08T07:04:27;40.05;;;23.77;;
52858;SDS011;38721;53.098;6.596;2024-03-08T07:06:57;35.90;;;23.45;;
52858;SDS011;38721;53.098;6.596;2024-03-08T07:09:26;39.88;;;23.50;;
52858;SDS011;38721;53.098;6.596;2024-03-08T07:11:52;41.80;;;22.95;;
52858;SDS011;38721;53.098;6.596;2024-03-08T07:14:22;37.53;;;24.90;;
52858;SDS011;38721;53.098;6.596;2024-03-08T07:16:49;41.20;;;23.88;;
52858;SDS011;38721;53.098;6.596;2024-03-08T07:19:16;37.72;;;23.30;;
52858;SDS011;38721;53.098;6.596;2024-03-08T07:21:45;36.33;;;22.67;;
52858;SDS011;38721;53.098;6.596;2024-03-08T07:24:12;42.58;;;23.90;;
52858;SDS011;38721;53.098;6.596;2024-03-08T07:26:57;38.17;;;23.33;;
52858;SDS011;38721;53.098;6.596;2024-03-08T07:29:23;37.55;;;23.48;;
52858;SDS011;38721;53.098;6.596;2024-03-08T07:31:48;38.45;;;22.80;;
52858;SDS011;38721;53.098;6.596;2024-03-08T07:34:33;36.92;;;23.38;;
52858;SDS011;38721;53.098;6.596;2024-03-08T07:36:58;36.40;;;23.08;;
52858;SDS011;38721;53.098;6.596;2024-03-08T07:39:24;36.50;;;22.40;;
52858;SDS011;38721;53.098;6.596;2024-03-08T07:41:50;36.03;;;23.55;;
52858;SDS011;38721;53.098;6.596;2024-03-08T07:44:18;38.17;;;22.92;;
52858;SDS011;38721;53.098;6.596;2024-03-08T07:46:44;33.42;;;21.98;;
52858;SDS011;38721;53.098;6.596;2024-03-08T07:49:09;35.67;;;22.45;;
52858;SDS011;38721;53.098;6.596;2024-03-08T07:51:37;36.50;;;23.42;;
52858;SDS011;38721;53.098;6.596;2024-03-08T07:54:03;36.22;;;22.85;;
52858;SDS011;38721;53.098;6.596;2024-03-08T07:56:30;35.72;;;21.75;;
52858;SDS011;38721;53.098;6.596;2024-03-08T07:58:56;34.60;;;22.17;;
52858;SDS011;38721;53.098;6.596;2024-03-08T08:01:21;39.72;;;23.63;;
52858;SDS011;38721;53.098;6.596;2024-03-08T08:03:47;36.13;;;22.30;;
52858;SDS011;38721;53.098;6.596;2024-03-08T08:06:16;36.47;;;24.33;;
52858;SDS011;38721;53.098;6.596;2024-03-08T08:08:42;36.53;;;23.42;;
52858;SDS011;38721;53.098;6.596;2024-03-08T08:11:08;38.30;;;23.27;;
52858;SDS011;38721;53.098;6.596;2024-03-08T08:13:34;35.67;;;22.95;;
52858;SDS011;38721;53.098;6.596;2024-03-08T08:16:01;39.17;;;23.10;;
52858;SDS011;38721;53.098;6.596;2024-03-08T08:18:31;39.03;;;23.17;;
52858;SDS011;38721;53.098;6.596;2024-03-08T08:20:58;36.20;;;22.77;;
52858;SDS011;38721;53.098;6.596;2024-03-08T08:23:25;40.78;;;23.08;;
52858;SDS011;38721;53.098;6.596;2024-03-08T08:25:51;37.13;;;24.08;;
52858;SDS011;38721;53.098;6.596;2024-03-08T08:28:17;40.03;;;22.83;;
52858;SDS011;38721;53.098;6.596;2024-03-08T08:30:44;39.83;;;24.52;;
52858;SDS011;38721;53.098;6.596;2024-03-08T08:33:10;40.33;;;24.95;;
52858;SDS011;38721;53.098;6.596;2024-03-08T08:35:36;42.33;;;24.10;;
52858;SDS011;38721;53.098;6.596;2024-03-08T08:38:03;38.30;;;23.15;;
52858;SDS011;38721;53.098;6.596;2024-03-08T08:40:29;35.15;;;21.90;;
52858;SDS011;38721;53.098;6.596;2024-03-08T08:42:58;40.03;;;22.63;;
52858;SDS011;38721;53.098;6.596;2024-03-08T08:45:25;35.25;;;21.77;;
52858;SDS011;38721;53.098;6.596;2024-03-08T08:47:51;30.55;;;21.30;;
52858;SDS011;38721;53.098;6.596;2024-03-08T08:50:17;36.33;;;22.88;;
52858;SDS011;38721;53.098;6.596;2024-03-08T08:52:50;35.38;;;21.83;;
52858;SDS011;38721;53.098;6.596;2024-03-08T08:55:19;33.53;;;22.00;;
52858;SDS011;38721;53.098;6.596;2024-03-08T08:57:50;33.67;;;22.35;;
52858;SDS011;38721;53.098;6.596;2024-03-08T09:00:17;34.78;;;22.20;;
52858;SDS011;38721;53.098;6.596;2024-03-08T09:02:46;34.17;;;23.27;;
52858;SDS011;38721;53.098;6.596;2024-03-08T09:05:13;32.60;;;21.45;;
52858;SDS011;38721;53.098;6.596;2024-03-08T09:07:45;33.88;;;22.48;;
52858;SDS011;38721;53.098;6.596;2024-03-08T09:10:11;36.15;;;21.60;;
52858;SDS011;38721;53.098;6.596;2024-03-08T09:12:39;33.40;;;21.48;;
52858;SDS011;38721;53.098;6.596;2024-03-08T09:15:06;32.15;;;20.77;;
52858;SDS011;38721;53.098;6.596;2024-03-08T09:17:38;34.15;;;22.20;;
52858;SDS011;38721;53.098;6.596;2024-03-08T09:20:09;33.05;;;21.23;;
52858;SDS011;38721;53.098;6.596;2024-03-08T09:22:39;36.28;;;21.95;;
52858;SDS011;38721;53.098;6.596;2024-03-08T09:25:06;35.65;;;21.10;;
52858;SDS011;38721;53.098;6.596;2024-03-08T09:27:32;32.35;;;21.73;;
52858;SDS011;38721;53.098;6.596;2024-03-08T09:29:59;34.85;;;22.25;;
52858;SDS011;38721;53.098;6.596;2024-03-08T09:32:25;33.03;;;22.30;;
52858;SDS011;38721;53.098;6.596;2024-03-08T09:34:51;34.00;;;22.15;;
52858;SDS011;38721;53.098;6.596;2024-03-08T09:37:17;34.33;;;22.88;;
52858;SDS011;38721;53.098;6.596;2024-03-08T09:39:43;34.45;;;23.10;;
52858;SDS011;38721;53.098;6.596;2024-03-08T09:42:09;33.30;;;22.27;;
52858;SDS011;38721;53.098;6.596;2024-03-08T09:44:39;33.88;;;21.83;;
52858;SDS011;38721;53.098;6.596;2024-03-08T09:47:14;35.92;;;21.85;;
52858;SDS011;38721;53.098;6.596;2024-03-08T09:49:40;34.38;;;22.05;;
52858;SDS011;38721;53.098;6.596;2024-03-08T09:52:10;32.47;;;21.38;;
52858;SDS011;38721;53.098;6.596;2024-03-08T09:54:37;35.25;;;22.63;;
52858;SDS011;38721;53.098;6.596;2024-03-08T09:57:04;32.25;;;21.90;;
52858;SDS011;38721;53.098;6.596;2024-03-08T09:59:34;35.25;;;22.27;;
52858;SDS011;38721;53.098;6.596;2024-03-08T10:02:02;33.63;;;21.70;;
52858;SDS011;38721;53.098;6.596;2024-03-08T10:04:29;33.33;;;22.30;;
52858;SDS011;38721;53.098;6.596;2024-03-08T10:06:58;32.70;;;22.27;;
52858;SDS011;38721;53.098;6.596;2024-03-08T10:09:25;31.77;;;22.27;;
52858;SDS011;38721;53.098;6.596;2024-03-08T10:11:58;32.80;;;21.25;;
52858;SDS011;38721;53.098;6.596;2024-03-08T10:14:25;32.47;;;21.35;;
52858;SDS011;38721;53.098;6.596;2024-03-08T10:16:54;35.50;;;22.42;;
52858;SDS011;38721;53.098;6.596;2024-03-08T10:19:24;31.95;;;21.48;;
52858;SDS011;38721;53.098;6.596;2024-03-08T10:21:51;32.22;;;21.92;;
52858;SDS011;38721;53.098;6.596;2024-03-08T10:24:22;33.10;;;21.35;;
52858;SDS011;38721;53.098;6.596;2024-03-08T10:26:51;33.15;;;21.60;;
52858;SDS011;38721;53.098;6.596;2024-03-08T10:29:29;31.45;;;21.85;;
52858;SDS011;38721;53.098;6.596;2024-03-08T10:31:56;33.78;;;21.08;;
52858;SDS011;38721;53.098;6.596;2024-03-08T10:34:22;33.97;;;21.20;;
52858;SDS011;38721;53.098;6.596;2024-03-08T10:36:49;31.95;;;21.52;;
52858;SDS011;38721;53.098;6.596;2024-03-08T10:39:22;34.33;;;21.13;;
52858;SDS011;38721;53.098;6.596;2024-03-08T10:41:53;33.00;;;20.33;;
52858;SDS011;38721;53.098;6.596;2024-03-08T10:47:12;32.03;;;21.58;;
52858;SDS011;38721;53.098;6.596;2024-03-08T10:49:54;33.58;;;20.67;;
52858;SDS011;38721;53.098;6.596;2024-03-08T10:52:20;32.00;;;21.60;;
52858;SDS011;38721;53.098;6.596;2024-03-08T10:54:47;31.63;;;20.95;;
52858;SDS011;38721;53.098;6.596;2024-03-08T10:57:15;33.80;;;22.17;;
52858;SDS011;38721;53.098;6.596;2024-03-08T10:59:45;31.60;;;20.90;;
52858;SDS011;38721;53.098;6.596;2024-03-08T11:02:14;34.53;;;21.05;;
52858;SDS011;38721;53.098;6.596;2024-03-08T11:04:49;31.85;;;20.25;;
52858;SDS011;38721;53.098;6.596;2024-03-08T11:07:16;31.38;;;19.88;;
52858;SDS011;38721;53.098;6.596;2024-03-08T11:09:43;29.50;;;20.05;;
52858;SDS011;38721;53.098;6.596;2024-03-08T11:14:54;34.78;;;21.95;;
52858;SDS011;38721;53.098;6.596;2024-03-08T11:18:06;32.95;;;20.30;;
52858;SDS011;38721;53.098;6.596;2024-03-08T11:20:14;28.95;;;19.63;;
52858;SDS011;38721;53.098;6.596;2024-03-08T11:22:47;31.55;;;20.25;;
52858;SDS011;38721;53.098;6.596;2024-03-08T11:25:49;30.03;;;19.67;;
52858;SDS011;38721;53.098;6.596;2024-03-08T11:28:17;31.38;;;20.13;;
52858;SDS011;38721;53.098;6.596;2024-03-08T11:33:24;32.08;;;20.15;;
52858;SDS011;38721;53.098;6.596;2024-03-08T11:38:45;28.88;;;19.02;;
52858;SDS011;38721;53.098;6.596;2024-03-08T11:41:14;27.48;;;18.17;;
52858;SDS011;38721;53.098;6.596;2024-03-08T11:43:45;28.02;;;17.45;;
52858;SDS011;38721;53.098;6.596;2024-03-08T11:46:11;27.30;;;17.10;;
52858;SDS011;38721;53.098;6.596;2024-03-08T11:48:39;29.67;;;17.65;;
52858;SDS011;38721;53.098;6.596;2024-03-08T11:51:09;26.58;;;15.88;;
52858;SDS011;38721;53.098;6.596;2024-03-08T11:53:37;27.95;;;15.88;;
52858;SDS011;38721;53.098;6.596;2024-03-08T11:56:07;27.13;;;16.35;;
52858;SDS011;38721;53.098;6.596;2024-03-08T11:58:37;28.10;;;16.52;;
52858;SDS011;38721;53.098;6.596;2024-03-08T12:01:10;26.98;;;16.15;;
52858;SDS011;38721;53.098;6.596;2024-03-08T12:03:39;28.55;;;16.73;;
52858;SDS011;38721;53.098;6.596;2024-03-08T12:06:07;27.05;;;16.13;;
52858;SDS011;38721;53.098;6.596;2024-03-08T12:08:35;24.75;;;15.73;;
52858;SDS011;38721;53.098;6.596;2024-03-08T12:11:01;27.65;;;16.38;;
52858;SDS011;38721;53.098;6.596;2024-03-08T12:13:32;28.83;;;16.73;;
52858;SDS011;38721;53.098;6.596;2024-03-08T12:15:59;27.40;;;16.13;;
52858;SDS011;38721;53.098;6.596;2024-03-08T12:18:35;28.20;;;17.35;;
52858;SDS011;38721;53.098;6.596;2024-03-08T12:21:09;27.00;;;16.95;;
52858;SDS011;38721;53.098;6.596;2024-03-08T12:23:37;28.95;;;17.00;;
52858;SDS011;38721;53.098;6.596;2024-03-08T12:26:11;27.48;;;17.27;;
52858;SDS011;38721;53.098;6.596;2024-03-08T12:28:48;26.10;;;16.67;;
52858;SDS011;38721;53.098;6.596;2024-03-08T12:31:14;26.75;;;16.23;;
52858;SDS011;38721;53.098;6.596;2024-03-08T12:36:16;26.17;;;16.27;;
52858;SDS011;38721;53.098;6.596;2024-03-08T12:38:49;26.50;;;17.05;;
52858;SDS011;38721;53.098;6.596;2024-03-08T12:41:18;26.42;;;16.38;;
52858;SDS011;38721;53.098;6.596;2024-03-08T12:43:45;25.67;;;16.73;;
52858;SDS011;38721;53.098;6.596;2024-03-08T12:46:15;25.27;;;15.30;;
52858;SDS011;38721;53.098;6.596;2024-03-08T12:48:40;27.17;;;15.98;;
52858;SDS011;38721;53.098;6.596;2024-03-08T12:51:15;25.90;;;15.85;;
52858;SDS011;38721;53.098;6.596;2024-03-08T12:53:43;26.23;;;15.90;;
52858;SDS011;38721;53.098;6.596;2024-03-08T12:56:11;24.88;;;15.77;;
52858;SDS011;38721;53.098;6.596;2024-03-08T12:58:37;26.63;;;16.13;;
52858;SDS011;38721;53.098;6.596;2024-03-08T13:01:04;24.27;;;14.82;;
52858;SDS011;38721;53.098;6.596;2024-03-08T13:03:32;22.45;;;14.93;;
52858;SDS011;38721;53.098;6.596;2024-03-08T13:05:59;23.70;;;14.88;;
52858;SDS011;38721;53.098;6.596;2024-03-08T13:08:26;22.25;;;15.00;;
52858;SDS011;38721;53.098;6.596;2024-03-08T13:10:54;24.20;;;15.45;;
52858;SDS011;38721;53.098;6.596;2024-03-08T13:13:20;22.60;;;14.63;;
52858;SDS011;38721;53.098;6.596;2024-03-08T13:15:46;23.10;;;14.35;;
52858;SDS011;38721;53.098;6.596;2024-03-08T13:18:12;23.80;;;15.13;;
52858;SDS011;38721;53.098;6.596;2024-03-08T13:20:37;23.85;;;14.65;;
52858;SDS011;38721;53.098;6.596;2024-03-08T13:23:03;26.35;;;15.25;;
52858;SDS011;38721;53.098;6.596;2024-03-08T13:25:30;23.85;;;15.55;;
52858;SDS011;38721;53.098;6.596;2024-03-08T13:27:56;23.10;;;14.20;;
52858;SDS011;38721;53.098;6.596;2024-03-08T13:30:24;21.05;;;14.35;;
52858;SDS011;38721;53.098;6.596;2024-03-08T13:32:52;20.92;;;14.48;;
52858;SDS011;38721;53.098;6.596;2024-03-08T13:35:19;21.67;;;13.95;;
52858;SDS011;38721;53.098;6.596;2024-03-08T13:37:51;22.13;;;13.65;;
52858;SDS011;38721;53.098;6.596;2024-03-08T13:40:17;21.17;;;13.98;;
52858;SDS011;38721;53.098;6.596;2024-03-08T13:42:46;19.95;;;13.52;;
52858;SDS011;38721;53.098;6.596;2024-03-08T13:45:14;21.92;;;14.20;;
52858;SDS011;38721;53.098;6.596;2024-03-08T13:47:42;22.38;;;13.50;;
52858;SDS011;38721;53.098;6.596;2024-03-08T13:50:09;19.60;;;13.20;;
52858;SDS011;38721;53.098;6.596;2024-03-08T13:52:49;20.38;;;13.27;;
52858;SDS011;38721;53.098;6.596;2024-03-08T13:55:19;20.60;;;13.70;;
52858;SDS011;38721;53.098;6.596;2024-03-08T13:57:47;21.92;;;13.68;;
52858;SDS011;38721;53.098;6.596;2024-03-08T14:00:14;23.88;;;13.30;;
52858;SDS011;38721;53.098;6.596;2024-03-08T14:02:40;21.83;;;13.38;;
52858;SDS011;38721;53.098;6.596;2024-03-08T14:05:09;19.02;;;13.18;;
52858;SDS011;38721;53.098;6.596;2024-03-08T14:07:37;19.77;;;12.10;;
52858;SDS011;38721;53.098;6.596;2024-03-08T14:10:03;20.67;;;12.35;;
52858;SDS011;38721;53.098;6.596;2024-03-08T14:12:31;18.63;;;12.15;;
52858;SDS011;38721;53.098;6.596;2024-03-08T14:14:57;18.48;;;12.20;;
52858;SDS011;38721;53.098;6.596;2024-03-08T14:17:27;19.40;;;12.02;;
52858;SDS011;38721;53.098;6.596;2024-03-08T14:19:56;17.58;;;12.55;;
52858;SDS011;38721;53.098;6.596;2024-03-08T14:22:22;18.98;;;12.77;;
52858;SDS011;38721;53.098;6.596;2024-03-08T14:24:48;18.70;;;12.35;;
52858;SDS011;38721;53.098;6.596;2024-03-08T14:27:15;18.05;;;12.10;;
52858;SDS011;38721;53.098;6.596;2024-03-08T14:29:42;18.08;;;11.35;;
52858;SDS011;38721;53.098;6.596;2024-03-08T14:32:08;18.15;;;12.48;;
52858;SDS011;38721;53.098;6.596;2024-03-08T14:34:35;15.57;;;11.30;;
52858;SDS011;38721;53.098;6.596;2024-03-08T14:37:01;15.93;;;11.80;;
52858;SDS011;38721;53.098;6.596;2024-03-08T14:39:30;16.83;;;12.20;;